createdAt,value
2023-02-14T00:01:57.996Z,45.65
2023-02-14T00:04:24.466Z,48.10
2023-02-14T00:06:50.804Z,51.55
2023-02-14T00:09:18.667Z,52.58
2023-02-14T00:11:45.190Z,52.88
2023-02-14T00:14:30.353Z,48.00
2023-02-14T00:16:56.670Z,50.67
2023-02-14T00:19:23.239Z,50.53
2023-02-14T00:21:49.818Z,51.40
2023-02-14T00:24:17.656Z,48.50
2023-02-14T00:26:44.100Z,49.25
2023-02-14T00:29:14.797Z,47.85
2023-02-14T00:31:42.655Z,48.92
2023-02-14T00:34:09.333Z,47.00
2023-02-14T00:36:35.996Z,47.30
2023-02-14T00:39:03.190Z,52.60
2023-02-14T00:41:29.654Z,52.88
2023-02-14T00:43:56.056Z,46.75
2023-02-14T00:46:23.832Z,55.50
2023-02-14T00:48:50.631Z,53.78
2023-02-14T00:51:18.364Z,57.97
2023-02-14T00:53:45.815Z,55.33
2023-02-14T00:56:12.709Z,53.92
2023-02-14T00:58:39.613Z,53.85
2023-02-14T01:01:06.341Z,56.17
2023-02-14T01:03:32.701Z,56.50
2023-02-14T01:05:59.115Z,55.20
2023-02-14T01:08:25.775Z,58.53
2023-02-14T01:10:52.324Z,54.00
2023-02-14T01:13:19.077Z,51.25
2023-02-14T01:15:46.597Z,54.53
2023-02-14T01:18:13.475Z,56.20
2023-02-14T01:20:40.255Z,60.58
2023-02-14T01:23:07.498Z,54.97
2023-02-14T01:25:36.053Z,54.53
2023-02-14T01:36:39.657Z,54.10
2023-02-14T01:39:07.454Z,55.67
2023-02-14T01:41:35.154Z,57.78
2023-02-14T01:44:04.465Z,60.67
2023-02-14T01:46:32.621Z,66.75
2023-02-14T01:49:02.337Z,65.10
2023-02-14T01:51:29.383Z,64.85
2023-02-14T01:53:56.598Z,66.38
2023-02-14T01:56:29.501Z,66.32
2023-02-14T01:58:58.525Z,68.35
2023-02-14T02:01:24.993Z,69.10
2023-02-14T02:03:53.810Z,62.83
2023-02-14T02:06:23.079Z,68.15
2023-02-14T02:09:08.350Z,66.55
2023-02-14T02:11:34.800Z,68.55
2023-02-14T02:14:01.130Z,63.78
2023-02-14T02:16:42.837Z,65.38
2023-02-14T02:19:09.195Z,67.93
2023-02-14T02:21:35.929Z,66.95
2023-02-14T02:24:21.539Z,71.90
2023-02-14T02:27:03.025Z,67.38
2023-02-14T02:29:41.634Z,71.05
2023-02-14T02:32:17.254Z,69.00
2023-02-14T02:35:05.487Z,68.85
2023-02-14T02:37:50.796Z,75.95
2023-02-14T02:40:29.271Z,78.63
2023-02-14T02:43:01.740Z,75.15
2023-02-14T02:45:34.594Z,68.90
2023-02-14T02:48:10.444Z,70.93
2023-02-14T02:50:55.234Z,75.93
2023-02-14T02:53:28.073Z,68.82
2023-02-14T02:56:16.503Z,72.63
2023-02-14T02:58:45.227Z,70.30
2023-02-14T03:01:14.089Z,68.55
2023-02-14T03:04:01.512Z,70.22
2023-02-14T03:06:29.512Z,78.22
2023-02-14T03:08:55.830Z,72.65
2023-02-14T03:11:23.192Z,68.30
2023-02-14T03:13:56.874Z,69.40
2023-02-14T03:16:35.576Z,64.25
2023-02-14T03:19:05.105Z,68.07
2023-02-14T03:21:44.249Z,68.30
2023-02-14T03:24:19.478Z,72.82
2023-02-14T03:26:48.581Z,69.00
2023-02-14T03:29:18.502Z,74.15
2023-02-14T03:31:47.902Z,65.95
2023-02-14T03:34:27.192Z,64.72
2023-02-14T03:36:56.489Z,69.88
2023-02-14T03:39:37.651Z,70.28
2023-02-14T03:42:16.202Z,63.35
2023-02-14T03:44:44.109Z,72.93
2023-02-14T03:47:12.708Z,62.92
2023-02-14T03:49:47.630Z,69.97
2023-02-14T03:52:14.327Z,68.38
2023-02-14T03:54:40.626Z,68.20
2023-02-14T03:57:28.748Z,71.82
2023-02-14T03:59:55.217Z,75.13
2023-02-14T04:02:24.935Z,75.63
2023-02-14T04:04:52.351Z,77.40
2023-02-14T04:07:19.772Z,77.22
2023-02-14T04:09:46.333Z,82.85
2023-02-14T04:12:13.388Z,88.53
2023-02-14T04:14:39.714Z,85.38
2023-02-14T04:17:24.909Z,91.07
2023-02-14T04:19:51.154Z,91.78
2023-02-14T04:22:17.558Z,83.35
2023-02-14T04:24:43.854Z,81.95
2023-02-14T04:27:10.651Z,85.10
2023-02-14T04:29:41.662Z,85.35
2023-02-14T04:32:09.032Z,91.65
2023-02-14T04:34:35.677Z,92.30
2023-02-14T04:37:02.220Z,90.20
2023-02-14T04:39:28.696Z,88.25
2023-02-14T04:41:55.434Z,95.13
2023-02-14T04:44:21.810Z,90.43
2023-02-14T04:46:48.153Z,93.80
2023-02-14T04:49:14.515Z,100.85
2023-02-14T04:51:40.884Z,91.30
2023-02-14T04:54:07.218Z,92.75
2023-02-14T04:56:33.498Z,95.10
2023-02-14T04:58:59.815Z,98.13
2023-02-14T05:01:26.160Z,104.50
2023-02-14T05:03:52.498Z,97.78
2023-02-14T05:06:18.874Z,91.65
2023-02-14T05:08:45.187Z,94.68
2023-02-14T05:11:11.455Z,104.35
2023-02-14T05:13:37.746Z,93.93
2023-02-14T05:16:04.151Z,100.00
2023-02-14T05:18:30.493Z,99.43
2023-02-14T05:20:57.044Z,105.32
2023-02-14T05:23:23.546Z,109.93
2023-02-14T05:25:50.614Z,105.93
2023-02-14T05:28:17.662Z,113.38
2023-02-14T05:30:44.191Z,99.60
2023-02-14T05:33:10.742Z,100.80
2023-02-14T05:35:37.102Z,102.32
2023-02-14T05:38:03.500Z,105.80
2023-02-14T05:40:29.900Z,107.70
2023-02-14T05:42:56.307Z,90.88
2023-02-14T05:45:22.916Z,95.57
2023-02-14T05:47:49.499Z,90.13
2023-02-14T05:50:16.427Z,86.13
2023-02-14T05:52:42.916Z,84.10
2023-02-14T05:55:09.853Z,85.45
2023-02-14T05:57:36.526Z,97.65
2023-02-14T06:00:05.435Z,91.95
2023-02-14T06:02:38.536Z,81.47
2023-02-14T06:05:04.953Z,87.72
2023-02-14T06:07:31.232Z,86.18
2023-02-14T06:09:57.558Z,82.40
2023-02-14T06:12:23.819Z,85.05
2023-02-14T06:14:50.086Z,86.15
2023-02-14T06:17:16.357Z,85.22
2023-02-14T06:19:43.269Z,82.80
2023-02-14T06:22:09.692Z,77.07
2023-02-14T06:24:36.970Z,85.55
2023-02-14T06:27:03.476Z,81.78
2023-02-14T06:29:29.820Z,75.90
2023-02-14T06:31:56.408Z,76.43
2023-02-14T06:34:22.886Z,88.13
2023-02-14T06:36:49.221Z,92.60
2023-02-14T06:39:15.820Z,112.88
2023-02-14T06:41:42.163Z,200.80
2023-02-14T06:44:10.322Z,265.38
2023-02-14T06:46:36.716Z,190.32
2023-02-14T06:49:03.009Z,149.32
2023-02-14T06:51:29.295Z,305.27
2023-02-14T06:53:55.603Z,230.38
2023-02-14T06:56:22.132Z,375.15
2023-02-14T06:58:48.494Z,217.20
2023-02-14T07:01:14.756Z,302.33
2023-02-14T07:03:42.105Z,294.75
2023-02-14T07:06:08.390Z,369.60
2023-02-14T07:08:34.642Z,324.35
2023-02-14T07:11:01.378Z,243.82
2023-02-14T07:13:27.948Z,428.30
2023-02-14T07:15:54.358Z,310.20
2023-02-14T07:18:20.792Z,355.60
2023-02-14T07:20:47.384Z,450.70
2023-02-14T07:23:13.720Z,373.02
2023-02-14T07:25:40.696Z,473.10
2023-02-14T07:28:07.077Z,540.70
2023-02-14T07:30:33.409Z,195.70
2023-02-14T07:32:59.775Z,347.02
2023-02-14T07:35:26.414Z,480.42
2023-02-14T07:37:52.839Z,491.20
2023-02-14T07:40:20.006Z,341.38
2023-02-14T07:42:52.591Z,328.40
2023-02-14T07:45:22.076Z,356.55
2023-02-14T07:47:49.755Z,310.38
2023-02-14T07:50:16.239Z,423.83
2023-02-14T07:52:42.526Z,435.30
2023-02-14T07:55:09.041Z,384.73
2023-02-14T07:57:35.313Z,393.13
2023-02-14T08:00:01.742Z,472.10
2023-02-14T08:02:38.301Z,529.42
2023-02-14T08:05:04.925Z,467.17
2023-02-14T08:07:31.217Z,574.88
2023-02-14T08:09:57.542Z,550.22
2023-02-14T08:12:42.598Z,558.78
2023-02-14T08:15:27.583Z,615.08
2023-02-14T08:17:53.830Z,616.92
2023-02-14T08:20:20.161Z,581.90
2023-02-14T08:22:46.463Z,453.65
2023-02-14T08:25:12.751Z,582.20
2023-02-14T08:27:39.013Z,485.05
2023-02-14T08:30:05.634Z,500.27
2023-02-14T08:32:32.098Z,281.90
2023-02-14T08:34:58.514Z,364.05
2023-02-14T08:37:24.880Z,205.75
2023-02-14T08:39:51.218Z,282.30
2023-02-14T08:42:17.643Z,388.60
2023-02-14T08:44:43.927Z,360.13
2023-02-14T08:47:10.211Z,227.48
2023-02-14T08:49:36.607Z,407.88
2023-02-14T08:52:02.885Z,503.33
2023-02-14T08:54:29.147Z,474.15
2023-02-14T08:56:55.524Z,576.92
2023-02-14T08:59:21.871Z,347.10
2023-02-14T09:01:48.188Z,440.50
2023-02-14T09:04:14.711Z,439.33
2023-02-14T09:06:41.146Z,503.38
2023-02-14T09:09:07.710Z,507.42
2023-02-14T09:11:34.803Z,413.70
2023-02-14T09:14:01.108Z,300.90
2023-02-14T09:16:27.472Z,475.58
2023-02-14T09:18:54.645Z,342.05
2023-02-14T09:21:23.220Z,371.20
2023-02-14T09:23:49.563Z,317.00
2023-02-14T09:26:16.262Z,363.35
2023-02-14T09:28:42.761Z,270.75
2023-02-14T09:31:09.208Z,368.40
2023-02-14T09:33:35.669Z,335.33
2023-02-14T09:36:20.651Z,615.15
2023-02-14T09:38:47.142Z,360.35
2023-02-14T09:41:28.551Z,534.78
2023-02-14T09:43:59.490Z,342.50
2023-02-14T09:46:26.454Z,583.42
2023-02-14T09:48:53.172Z,358.88
2023-02-14T09:51:25.447Z,299.13
2023-02-14T09:53:54.334Z,667.50
2023-02-14T09:56:20.690Z,467.33
2023-02-14T09:58:55.839Z,644.38
2023-02-14T10:01:25.579Z,272.20
2023-02-14T10:03:52.308Z,154.32
2023-02-14T10:06:24.806Z,172.23
2023-02-14T10:08:51.037Z,388.45
2023-02-14T10:11:20.458Z,463.60
2023-02-14T10:13:46.780Z,205.35
2023-02-14T10:16:23.415Z,328.77
2023-02-14T10:18:54.170Z,489.08
2023-02-14T10:21:40.990Z,182.38
2023-02-14T10:24:28.531Z,274.55
2023-02-14T10:26:57.675Z,204.55
2023-02-14T10:29:24.152Z,151.38
2023-02-14T10:31:56.510Z,190.20
2023-02-14T10:34:27.841Z,129.88
2023-02-14T10:37:09.599Z,508.92
2023-02-14T10:39:47.323Z,184.45
2023-02-14T10:42:16.552Z,148.10
2023-02-14T10:44:59.910Z,103.88
2023-02-14T10:47:26.199Z,190.27
2023-02-14T10:49:56.305Z,259.75
2023-02-14T10:52:26.640Z,122.47
2023-02-14T10:54:54.363Z,137.02
2023-02-14T10:57:25.147Z,173.13
2023-02-14T10:59:57.558Z,123.53
2023-02-14T11:02:25.582Z,114.22
2023-02-14T11:04:52.161Z,249.50
2023-02-14T11:07:19.820Z,535.33
2023-02-14T11:09:46.225Z,293.50
2023-02-14T11:12:12.809Z,99.70
2023-02-14T11:14:40.028Z,144.25
2023-02-14T11:17:25.863Z,116.13
2023-02-14T11:20:02.542Z,110.90
2023-02-14T11:22:29.943Z,86.90
2023-02-14T11:25:06.289Z,91.22
2023-02-14T11:27:32.853Z,309.10
2023-02-14T11:30:01.828Z,138.00
2023-02-14T11:32:29.704Z,187.02
2023-02-14T11:35:00.395Z,448.92
2023-02-14T11:37:28.759Z,86.97
2023-02-14T11:39:56.428Z,106.30
2023-02-14T11:43:02.129Z,84.47
2023-02-14T11:45:38.359Z,80.50
2023-02-14T11:48:10.148Z,260.10
2023-02-14T11:50:37.140Z,90.40
2023-02-14T11:53:03.546Z,194.77
2023-02-14T11:55:33.490Z,243.20
2023-02-14T11:58:01.086Z,171.75
2023-02-14T12:00:27.768Z,200.73
2023-02-14T12:02:55.548Z,83.97
2023-02-14T12:05:28.125Z,88.78
2023-02-14T12:07:56.030Z,92.25
2023-02-14T12:10:25.130Z,76.00
2023-02-14T12:13:03.566Z,82.82
2023-02-14T12:15:30.005Z,80.80
2023-02-14T12:18:16.546Z,136.80
2023-02-14T12:21:01.659Z,83.25
2023-02-14T12:23:42.093Z,89.15
2023-02-14T12:26:24.048Z,79.85
2023-02-14T12:28:54.295Z,130.07
2023-02-14T12:31:20.688Z,79.72
2023-02-14T12:33:49.547Z,168.65
2023-02-14T12:36:39.805Z,87.05
2023-02-14T12:39:06.051Z,76.13
2023-02-14T12:41:49.204Z,77.03
2023-02-14T12:44:15.473Z,80.30
2023-02-14T12:47:00.175Z,77.63
2023-02-14T12:49:26.499Z,74.07
2023-02-14T12:52:06.285Z,75.88
2023-02-14T12:54:44.708Z,73.60
2023-02-14T12:57:29.779Z,78.55
2023-02-14T12:59:56.127Z,76.88
2023-02-14T13:02:34.771Z,72.57
2023-02-14T13:05:20.007Z,68.13
2023-02-14T13:07:56.277Z,64.68
2023-02-14T13:10:45.669Z,73.85
2023-02-14T13:13:30.374Z,72.25
2023-02-14T13:16:17.956Z,70.55
2023-02-14T13:18:58.181Z,71.97
2023-02-14T13:21:26.256Z,72.93
2023-02-14T13:23:55.635Z,67.68
2023-02-14T13:26:27.291Z,69.72
2023-02-14T13:29:01.852Z,69.47
2023-02-14T13:31:28.698Z,68.07
2023-02-14T13:33:58.292Z,72.72
2023-02-14T13:36:25.840Z,62.38
2023-02-14T13:41:22.265Z,75.40
2023-02-14T13:43:52.877Z,68.00
2023-02-14T13:46:34.351Z,61.95
2023-02-14T13:49:03.653Z,64.93
2023-02-14T13:51:46.828Z,67.90
2023-02-14T13:54:28.291Z,72.20
2023-02-14T13:56:54.775Z,70.32
2023-02-14T13:59:29.146Z,66.28
2023-02-14T14:01:56.090Z,62.83
2023-02-14T14:04:28.770Z,64.97
2023-02-14T14:07:04.439Z,69.07
2023-02-14T14:09:40.208Z,67.68
2023-02-14T14:12:25.557Z,72.68
2023-02-14T14:15:04.387Z,70.35
2023-02-14T14:17:35.280Z,68.18
2023-02-14T14:20:04.354Z,65.10
2023-02-14T14:22:30.968Z,67.53
2023-02-14T14:25:01.610Z,71.53
2023-02-14T14:27:47.057Z,68.80
2023-02-14T14:30:13.489Z,70.80
2023-02-14T14:32:40.078Z,72.80
2023-02-14T14:35:06.596Z,75.97
2023-02-14T14:37:34.546Z,72.07
2023-02-14T14:40:02.201Z,73.03
2023-02-14T14:42:36.494Z,76.32
2023-02-14T14:45:04.290Z,77.05
2023-02-14T14:47:56.830Z,75.28
2023-02-14T14:50:25.386Z,78.03
2023-02-14T14:52:54.034Z,72.70
2023-02-14T14:55:22.688Z,77.97
2023-02-14T14:57:53.136Z,73.82
2023-02-14T15:00:24.367Z,76.90
2023-02-14T15:02:56.893Z,78.32
2023-02-14T15:05:25.881Z,73.93
2023-02-14T15:07:52.528Z,75.53
2023-02-14T15:10:28.735Z,76.70
2023-02-14T15:13:15.724Z,77.63
2023-02-14T15:15:43.092Z,77.63
2023-02-14T15:18:12.361Z,74.28
2023-02-14T15:20:40.411Z,75.10
2023-02-14T15:23:06.844Z,74.43
2023-02-14T15:25:36.549Z,77.38
2023-02-14T15:28:02.875Z,70.65
2023-02-14T15:30:33.840Z,70.90
2023-02-14T15:33:01.502Z,81.47
2023-02-14T15:35:29.590Z,76.07
2023-02-14T15:37:56.827Z,74.53
2023-02-14T15:40:24.418Z,79.32
2023-02-14T15:42:56.339Z,80.03
2023-02-14T15:45:26.020Z,77.03
2023-02-14T15:47:53.940Z,73.93
2023-02-14T15:50:26.039Z,78.93
2023-02-14T15:52:53.171Z,74.78
2023-02-14T15:55:21.984Z,75.72
2023-02-14T15:57:54.911Z,78.15
2023-02-14T16:00:22.173Z,59.25
2023-02-14T16:02:59.277Z,76.75
2023-02-14T16:05:27.268Z,81.47
2023-02-14T16:07:57.602Z,79.05
2023-02-14T16:10:28.830Z,80.57
2023-02-14T16:13:18.187Z,74.63
2023-02-14T16:15:56.801Z,80.93
2023-02-14T16:18:33.634Z,84.30
2023-02-14T16:21:18.453Z,78.05
2023-02-14T16:23:46.341Z,83.28
2023-02-14T16:26:13.323Z,79.22
2023-02-14T16:28:41.423Z,83.78
2023-02-14T16:31:15.216Z,82.43
2023-02-14T16:33:41.635Z,80.77
2023-02-14T16:36:15.555Z,80.18
2023-02-14T16:38:43.709Z,79.07
2023-02-14T16:41:20.559Z,82.53
2023-02-14T16:43:47.428Z,82.43
2023-02-14T16:46:14.720Z,85.97
2023-02-14T16:48:45.267Z,86.80
2023-02-14T16:51:15.442Z,90.32
2023-02-14T16:53:42.719Z,96.15
2023-02-14T16:56:15.266Z,87.07
2023-02-14T16:58:41.812Z,85.85
2023-02-14T17:01:08.127Z,88.15
2023-02-14T17:03:34.505Z,86.45
2023-02-14T17:06:01.550Z,93.22
2023-02-14T17:08:28.543Z,92.72
2023-02-14T17:10:56.622Z,91.28
2023-02-14T17:13:24.948Z,90.43
2023-02-14T17:15:51.683Z,93.32
2023-02-14T17:18:19.135Z,98.07
2023-02-14T17:20:45.410Z,90.68
2023-02-14T17:23:11.763Z,95.05
2023-02-14T17:25:38.638Z,102.10
2023-02-14T17:28:05.102Z,103.18
2023-02-14T17:30:31.463Z,120.72
2023-02-14T17:32:57.794Z,117.82
2023-02-14T17:35:24.142Z,114.63
2023-02-14T17:37:50.859Z,116.53
2023-02-14T17:40:22.127Z,112.15
2023-02-14T17:43:14.866Z,105.25
2023-02-14T17:45:50.092Z,104.78
2023-02-14T17:48:19.935Z,111.97
2023-02-14T17:50:48.157Z,103.95
2023-02-14T17:53:21.240Z,109.50
2023-02-14T17:55:53.637Z,112.28
2023-02-14T17:58:20.775Z,108.53
2023-02-14T18:00:50.495Z,107.13
2023-02-14T18:03:23.630Z,88.43
2023-02-14T18:05:53.139Z,81.47
2023-02-14T18:08:28.540Z,80.30
2023-02-14T18:10:57.127Z,90.13
2023-02-14T18:13:28.218Z,97.05
2023-02-14T18:15:57.435Z,98.45
2023-02-14T18:18:28.082Z,94.32
2023-02-14T18:21:05.964Z,118.18
2023-02-14T18:23:41.226Z,101.60
2023-02-14T18:26:21.278Z,95.05
2023-02-14T18:28:55.048Z,102.55
2023-02-14T18:31:35.199Z,94.07
2023-02-14T18:34:02.914Z,89.68
2023-02-14T18:36:40.997Z,88.18
2023-02-14T18:39:16.725Z,91.07
2023-02-14T18:41:46.871Z,113.70
2023-02-14T18:44:39.621Z,112.78
2023-02-14T18:47:19.058Z,108.60
2023-02-14T18:49:51.492Z,96.50
2023-02-14T18:52:21.544Z,92.25
2023-02-14T18:54:51.333Z,89.13
2023-02-14T18:57:19.525Z,88.07
2023-02-14T18:59:46.776Z,88.80
2023-02-14T19:02:19.197Z,96.35
2023-02-14T19:04:49.689Z,91.78
2023-02-14T19:07:19.081Z,98.70
2023-02-14T19:09:48.796Z,91.95
2023-02-14T19:12:16.054Z,90.40
2023-02-14T19:14:51.401Z,92.93
2023-02-14T19:17:25.395Z,187.18
2023-02-14T19:20:01.878Z,136.38
2023-02-14T19:22:38.265Z,138.82
2023-02-14T19:25:19.333Z,109.35
2023-02-14T19:27:49.847Z,104.97
2023-02-14T19:30:29.529Z,78.93
2023-02-14T19:33:00.023Z,97.20
2023-02-14T19:35:36.488Z,108.95
2023-02-14T19:38:10.178Z,103.00
2023-02-14T19:40:47.580Z,92.53
2023-02-14T19:43:14.247Z,97.18
2023-02-14T19:45:40.579Z,102.82
2023-02-14T19:48:06.868Z,97.82
2023-02-14T19:50:33.156Z,96.35
2023-02-14T19:52:59.474Z,99.97
2023-02-14T19:55:27.514Z,110.65
2023-02-14T19:57:55.315Z,110.38
2023-02-14T20:00:22.016Z,106.15
2023-02-14T20:02:48.344Z,113.85
2023-02-14T20:05:15.497Z,105.47
2023-02-14T20:07:43.341Z,105.15
2023-02-14T20:10:12.739Z,125.78
2023-02-14T20:12:39.184Z,113.80
2023-02-14T20:15:05.861Z,113.78
2023-02-14T20:17:32.467Z,117.15
2023-02-14T20:19:58.893Z,110.00
2023-02-14T20:22:25.393Z,106.05
2023-02-14T20:24:51.814Z,105.88
2023-02-14T20:27:18.214Z,125.30
2023-02-14T20:29:44.985Z,115.80
2023-02-14T20:32:12.400Z,116.80
2023-02-14T20:34:38.890Z,187.23
2023-02-14T20:37:05.200Z,129.13
2023-02-14T20:39:32.781Z,127.45
2023-02-14T20:41:59.889Z,159.68
2023-02-14T20:44:26.497Z,480.50
2023-02-14T20:46:54.040Z,382.80
2023-02-14T20:49:21.233Z,394.38
2023-02-14T20:51:49.695Z,351.52
2023-02-14T20:54:16.629Z,204.77
2023-02-14T20:56:43.031Z,340.30
2023-02-14T20:59:10.049Z,432.40
2023-02-14T21:01:36.439Z,382.27
2023-02-14T21:04:02.847Z,486.33
2023-02-14T21:06:31.164Z,344.38
2023-02-14T21:08:57.435Z,462.08
2023-02-14T21:11:24.299Z,621.83
2023-02-14T21:13:53.513Z,550.70
2023-02-14T21:16:20.187Z,438.70
2023-02-14T21:18:51.569Z,523.35
2023-02-14T21:21:19.949Z,703.25
2023-02-14T21:23:47.894Z,571.83
2023-02-14T21:26:14.272Z,451.58
2023-02-14T21:28:40.582Z,740.00
2023-02-14T21:31:08.367Z,778.97
2023-02-14T21:33:35.354Z,442.25
2023-02-14T21:36:08.162Z,661.05
2023-02-14T21:38:35.002Z,514.88
2023-02-14T21:41:04.694Z,330.08
2023-02-14T21:43:33.601Z,634.08
2023-02-14T21:46:02.091Z,531.80
2023-02-14T21:48:47.228Z,555.40
2023-02-14T21:51:15.234Z,635.60
2023-02-14T21:53:42.369Z,601.05
2023-02-14T21:56:10.422Z,552.13
2023-02-14T21:58:39.973Z,437.52
2023-02-14T22:01:06.848Z,353.50
2023-02-14T22:03:33.663Z,334.75
2023-02-14T22:06:03.863Z,304.02
2023-02-14T22:08:30.696Z,346.35
2023-02-14T22:10:57.173Z,378.75
2023-02-14T22:13:23.591Z,530.70
2023-02-14T22:15:49.955Z,376.33
2023-02-14T22:18:16.615Z,356.23
2023-02-14T22:20:43.075Z,411.27
2023-02-14T22:23:10.351Z,626.65
2023-02-14T22:25:36.645Z,605.50
2023-02-14T22:28:02.971Z,520.08
2023-02-14T22:30:29.331Z,582.00
2023-02-14T22:32:55.594Z,716.80
2023-02-14T22:35:21.899Z,634.60
2023-02-14T22:37:48.194Z,611.72
2023-02-14T22:40:14.493Z,503.10
2023-02-14T22:42:40.798Z,595.55
2023-02-14T22:45:07.357Z,368.80
2023-02-14T22:47:33.689Z,697.35
2023-02-14T22:50:01.159Z,437.23
2023-02-14T22:52:27.735Z,603.40
2023-02-14T22:54:54.074Z,501.88
2023-02-14T22:57:20.847Z,668.80
2023-02-14T22:59:47.214Z,626.10
2023-02-14T23:02:14.557Z,670.97
2023-02-14T23:04:40.859Z,561.42
2023-02-14T23:07:09.357Z,356.05
2023-02-14T23:09:35.633Z,475.20
2023-02-14T23:12:02.004Z,517.40
2023-02-14T23:14:46.750Z,621.03
2023-02-14T23:17:14.451Z,374.55
2023-02-14T23:19:59.523Z,611.58
2023-02-14T23:22:37.992Z,378.63
2023-02-14T23:25:05.981Z,366.50
2023-02-14T23:27:58.456Z,430.98
2023-02-14T23:30:24.825Z,395.92
2023-02-14T23:32:51.131Z,356.98
2023-02-14T23:35:17.424Z,374.23
2023-02-14T23:37:43.697Z,620.00
2023-02-14T23:40:10.182Z,332.63
2023-02-14T23:42:36.562Z,359.60
2023-02-14T23:45:21.780Z,466.17
2023-02-14T23:47:48.097Z,433.23
2023-02-14T23:50:14.466Z,578.78
2023-02-14T23:52:41.676Z,364.27
2023-02-14T23:55:08.351Z,479.98
2023-02-14T23:57:34.632Z,538.80
